Alvarez, Argentina
Current Conditions -  °F | °C
As of 5:00 AM on Monday 26 Jan 2015 (Local Time) from SAAR Reporting Station
Clear Clear  
Wind Chill: 73°   Ceiling: Unl
Heat Index: 73°   Visibility: 6mi
Dew Point: 70°   Wind: 3mph
Humidity: 88%   Direction: 50°NE
Pressure: 29.74"   Gusts: NA
Location:  33.08°S, 60.77°W
Report Text: SAAR 260800Z 05003KT CAVOK 23/21 Q1007
Loading
Personal Weather Stations






























Interactive Weather Map New forecast layout! Learn more

10-Day Weather Forecast

Advertisements
Track Severe Weather on mobile